createdAt,value
2022-07-29T00:01:22.764Z,3.80
2022-07-29T00:03:49.224Z,3.88
2022-07-29T00:06:21.845Z,3.70
2022-07-29T00:08:48.280Z,3.83
2022-07-29T00:11:17.089Z,3.90
2022-07-29T00:13:46.505Z,4.00
2022-07-29T00:16:19.489Z,3.65
2022-07-29T00:18:46.001Z,3.78
2022-07-29T00:21:17.746Z,3.22
2022-07-29T00:23:48.972Z,3.65
2022-07-29T00:26:15.437Z,3.08
2022-07-29T00:28:41.905Z,4.05
2022-07-29T00:31:09.097Z,3.70
2022-07-29T00:33:35.581Z,3.85
2022-07-29T00:36:04.765Z,3.10
2022-07-29T00:38:33.608Z,3.75
2022-07-29T00:41:00.161Z,3.85
2022-07-29T00:43:26.700Z,3.50
2022-07-29T00:45:55.151Z,3.47
2022-07-29T00:48:23.621Z,3.05
2022-07-29T00:50:52.844Z,3.38
2022-07-29T00:53:20.968Z,3.25
2022-07-29T00:55:47.427Z,3.33
2022-07-29T00:58:16.346Z,3.80
2022-07-29T01:00:46.278Z,3.40
2022-07-29T01:03:13.315Z,3.58
2022-07-29T01:05:50.874Z,2.97
2022-07-29T01:08:18.814Z,3.63
2022-07-29T01:10:49.938Z,3.80
2022-07-29T01:13:16.943Z,3.00
2022-07-29T01:16:32.928Z,2.80
2022-07-29T01:19:13.223Z,2.95
2022-07-29T01:21:55.855Z,3.20
2022-07-29T01:24:41.318Z,2.90
2022-07-29T01:27:40.421Z,2.92
2022-07-29T01:30:09.804Z,2.95
2022-07-29T01:32:38.131Z,3.08
2022-07-29T01:35:10.636Z,2.85
2022-07-29T01:38:05.168Z,2.60
2022-07-29T01:40:46.875Z,2.85
2022-07-29T01:43:17.430Z,3.03
2022-07-29T01:46:15.169Z,2.05
2022-07-29T01:48:48.345Z,2.97
2022-07-29T01:51:29.400Z,2.25
2022-07-29T01:54:09.863Z,2.67
2022-07-29T01:56:37.487Z,2.50
2022-07-29T01:59:08.436Z,2.50
2022-07-29T02:01:38.824Z,2.35
2022-07-29T02:04:07.570Z,2.53
2022-07-29T02:06:36.038Z,2.17
2022-07-29T02:09:08.558Z,2.50
2022-07-29T02:11:38.978Z,2.22
2022-07-29T02:14:06.137Z,2.22
2022-07-29T02:16:34.494Z,2.40
2022-07-29T02:19:06.428Z,2.30
2022-07-29T02:21:33.401Z,1.92
2022-07-29T02:24:02.028Z,2.38
2022-07-29T02:26:31.287Z,2.17
2022-07-29T02:28:58.504Z,2.67
2022-07-29T02:31:26.880Z,2.63
2022-07-29T02:33:54.764Z,2.20
2022-07-29T02:36:24.011Z,2.40
2022-07-29T02:38:51.225Z,2.85
2022-07-29T02:41:26.520Z,2.60
2022-07-29T02:43:59.496Z,2.58
2022-07-29T02:46:34.896Z,2.70
2022-07-29T02:49:20.532Z,2.33
2022-07-29T02:51:53.433Z,2.70
2022-07-29T02:54:45.677Z,2.60
2022-07-29T02:57:20.701Z,2.67
2022-07-29T02:59:49.299Z,2.47
2022-07-29T03:02:18.824Z,2.70
2022-07-29T03:04:45.605Z,2.50
2022-07-29T03:07:14.239Z,2.33
2022-07-29T03:09:42.724Z,2.20
2022-07-29T03:12:12.358Z,2.60
2022-07-29T03:14:39.540Z,2.15
2022-07-29T03:17:09.422Z,2.47
2022-07-29T03:19:39.923Z,2.20
2022-07-29T03:22:07.033Z,2.00
2022-07-29T03:24:35.622Z,2.38
2022-07-29T03:27:05.264Z,2.80
2022-07-29T03:29:34.881Z,2.63
2022-07-29T03:32:09.046Z,2.00
2022-07-29T03:34:37.000Z,2.20
2022-07-29T03:37:08.247Z,1.95
2022-07-29T03:39:41.790Z,2.00
2022-07-29T03:42:09.725Z,1.98
2022-07-29T03:44:39.956Z,2.10
2022-07-29T03:47:07.795Z,2.80
2022-07-29T03:49:39.931Z,2.50
2022-07-29T03:52:07.019Z,2.70
2022-07-29T03:54:33.816Z,2.30
2022-07-29T03:57:02.345Z,2.10
2022-07-29T03:59:31.566Z,2.85
2022-07-29T04:01:58.927Z,2.30
2022-07-29T04:04:25.940Z,2.80
2022-07-29T04:06:56.247Z,2.70
2022-07-29T04:09:22.753Z,2.05
2022-07-29T04:12:02.350Z,2.20
2022-07-29T04:14:35.336Z,1.88
2022-07-29T04:17:05.019Z,2.08
2022-07-29T04:19:36.629Z,1.90
2022-07-29T04:22:07.862Z,2.20
2022-07-29T04:24:34.332Z,1.98
2022-07-29T04:27:00.748Z,1.90
2022-07-29T04:29:27.214Z,1.70
2022-07-29T04:31:53.730Z,1.52
2022-07-29T04:34:20.914Z,1.63
2022-07-29T04:36:47.663Z,2.00
2022-07-29T04:39:17.065Z,1.80
2022-07-29T04:41:45.799Z,1.55
2022-07-29T04:44:13.070Z,1.85
2022-07-29T04:46:43.050Z,1.40
2022-07-29T04:49:09.632Z,1.60
2022-07-29T04:51:38.769Z,1.20
2022-07-29T04:54:05.232Z,1.05
2022-07-29T04:56:31.675Z,1.40
2022-07-29T04:58:58.226Z,1.50
2022-07-29T05:01:27.169Z,1.33
2022-07-29T05:03:58.314Z,1.48
2022-07-29T05:06:26.419Z,1.60
2022-07-29T05:08:52.867Z,1.50
2022-07-29T05:11:24.919Z,1.67
2022-07-29T05:13:55.990Z,1.23
2022-07-29T05:16:22.562Z,1.65
2022-07-29T05:18:51.529Z,1.60
2022-07-29T05:21:17.953Z,1.52
2022-07-29T05:23:44.365Z,1.65
2022-07-29T05:26:10.836Z,1.50
2022-07-29T05:28:37.365Z,1.85
2022-07-29T05:31:03.857Z,1.80
2022-07-29T05:33:35.044Z,1.80
2022-07-29T05:36:08.544Z,1.60
2022-07-29T05:38:37.667Z,1.50
2022-07-29T05:41:05.944Z,1.58
2022-07-29T05:43:32.741Z,1.60
2022-07-29T05:45:59.291Z,1.88
2022-07-29T05:48:28.369Z,1.63
2022-07-29T05:50:57.568Z,1.77
2022-07-29T05:53:28.828Z,1.67
2022-07-29T05:56:00.136Z,1.92
2022-07-29T05:58:28.946Z,1.60
2022-07-29T06:01:00.131Z,2.10
2022-07-29T06:03:26.890Z,2.00
2022-07-29T06:05:53.717Z,1.63
2022-07-29T06:08:22.577Z,2.00
2022-07-29T06:10:49.169Z,1.88
2022-07-29T06:13:17.903Z,2.00
2022-07-29T06:15:45.322Z,2.00
2022-07-29T06:18:14.401Z,1.80
2022-07-29T06:20:40.837Z,1.80
2022-07-29T06:23:11.866Z,1.67
2022-07-29T06:25:43.489Z,2.00
2022-07-29T06:28:10.034Z,1.70
2022-07-29T06:30:38.833Z,1.85
2022-07-29T06:33:07.575Z,2.00
2022-07-29T06:35:42.385Z,2.13
2022-07-29T06:38:30.137Z,2.10
2022-07-29T06:41:00.973Z,1.60
2022-07-29T06:43:29.984Z,1.98
2022-07-29T06:45:57.122Z,2.15
2022-07-29T06:48:23.551Z,2.30
2022-07-29T06:50:54.905Z,1.70
2022-07-29T06:53:22.040Z,2.00
2022-07-29T06:55:48.873Z,2.22
2022-07-29T06:58:16.958Z,2.40
2022-07-29T07:00:46.016Z,1.90
2022-07-29T07:03:12.664Z,1.90
2022-07-29T07:05:39.143Z,1.98
2022-07-29T07:08:05.952Z,1.80
2022-07-29T07:10:33.593Z,1.83
2022-07-29T07:13:00.559Z,1.67
2022-07-29T07:15:39.938Z,1.33
2022-07-29T07:18:07.080Z,1.48
2022-07-29T07:20:34.712Z,1.65
2022-07-29T07:23:04.087Z,1.60
2022-07-29T07:25:30.513Z,1.65
2022-07-29T07:27:56.983Z,1.60
2022-07-29T07:30:28.310Z,1.73
2022-07-29T07:32:56.229Z,1.35
2022-07-29T07:35:22.757Z,2.03
2022-07-29T07:37:54.080Z,2.33
2022-07-29T07:40:23.625Z,1.80
2022-07-29T07:42:52.471Z,1.50
2022-07-29T07:45:21.074Z,1.80
2022-07-29T07:47:47.699Z,1.65
2022-07-29T07:50:18.681Z,1.42
2022-07-29T07:52:50.158Z,1.88
2022-07-29T07:55:17.137Z,1.55
2022-07-29T07:57:46.433Z,2.20
2022-07-29T08:00:15.084Z,1.70
2022-07-29T08:02:41.690Z,1.60
2022-07-29T08:05:12.573Z,1.95
2022-07-29T08:07:41.618Z,2.03
2022-07-29T08:10:08.472Z,2.22
2022-07-29T08:12:34.894Z,1.58
2022-07-29T08:15:01.434Z,1.60
2022-07-29T08:17:28.100Z,1.60
2022-07-29T08:19:56.851Z,1.83
2022-07-29T08:22:23.358Z,2.00
2022-07-29T08:24:57.068Z,1.95
2022-07-29T08:27:43.456Z,2.30
2022-07-29T08:30:12.233Z,2.03
2022-07-29T08:32:53.733Z,1.60
2022-07-29T08:35:23.784Z,2.10
2022-07-29T08:37:52.754Z,2.05
2022-07-29T08:40:32.217Z,1.88
2022-07-29T08:42:59.656Z,1.92
2022-07-29T08:45:26.214Z,2.42
2022-07-29T08:47:53.451Z,1.60
2022-07-29T08:50:19.898Z,1.58
2022-07-29T08:52:46.481Z,2.10
2022-07-29T08:55:21.419Z,1.50
2022-07-29T08:57:54.150Z,1.80
2022-07-29T09:00:25.524Z,1.77
2022-07-29T09:03:00.114Z,1.55
2022-07-29T09:05:27.535Z,1.85
2022-07-29T09:07:54.307Z,2.00
2022-07-29T09:10:23.377Z,2.00
2022-07-29T09:12:53.212Z,2.20
2022-07-29T09:15:19.657Z,2.40
2022-07-29T09:17:51.717Z,2.70
2022-07-29T09:20:20.483Z,1.90
2022-07-29T09:22:50.511Z,2.20
2022-07-29T09:25:52.566Z,1.95
2022-07-29T09:28:19.194Z,2.17
2022-07-29T09:30:57.213Z,1.95
2022-07-29T09:33:24.465Z,2.25
2022-07-29T09:36:06.411Z,2.00
2022-07-29T09:38:38.361Z,1.80
2022-07-29T09:41:09.742Z,1.75
2022-07-29T09:43:36.208Z,1.73
2022-07-29T09:46:15.475Z,2.22
2022-07-29T09:48:42.137Z,2.40
2022-07-29T09:51:25.596Z,1.90
2022-07-29T09:53:58.838Z,1.73
2022-07-29T09:56:43.937Z,2.50
2022-07-29T09:59:12.065Z,2.30
2022-07-29T10:01:43.072Z,2.47
2022-07-29T10:04:10.022Z,2.30
2022-07-29T10:06:36.436Z,2.40
2022-07-29T10:09:12.523Z,2.38
2022-07-29T10:11:49.077Z,2.10
2022-07-29T10:14:27.935Z,1.83
2022-07-29T10:16:54.916Z,1.70
2022-07-29T10:19:23.767Z,2.17
2022-07-29T10:21:52.913Z,2.17
2022-07-29T10:24:29.109Z,1.70
2022-07-29T10:27:00.333Z,1.80
2022-07-29T10:29:29.815Z,1.98
2022-07-29T10:32:16.331Z,1.90
2022-07-29T10:35:01.342Z,2.00
2022-07-29T10:37:35.511Z,1.98
2022-07-29T10:40:45.791Z,2.20
2022-07-29T10:43:29.945Z,2.97
2022-07-29T10:46:00.286Z,2.40
2022-07-29T10:48:27.289Z,2.47
2022-07-29T10:50:57.845Z,2.40
2022-07-29T10:53:25.337Z,2.10
2022-07-29T10:55:58.153Z,2.78
2022-07-29T10:58:25.188Z,2.80
2022-07-29T11:00:53.282Z,3.17
2022-07-29T11:03:49.487Z,3.08
2022-07-29T11:06:26.682Z,2.42
2022-07-29T11:12:46.874Z,2.75
2022-07-29T11:18:17.323Z,4.05
2022-07-29T11:20:49.823Z,3.47
2022-07-29T11:23:40.221Z,3.00
2022-07-29T11:26:21.060Z,3.50
2022-07-29T11:28:53.586Z,3.33
2022-07-29T11:31:34.334Z,4.75
2022-07-29T11:34:22.984Z,3.35
2022-07-29T11:37:13.617Z,3.45
2022-07-29T11:39:47.643Z,4.45
2022-07-29T11:42:28.188Z,4.53
2022-07-29T11:45:40.356Z,4.30
2022-07-29T11:47:48.838Z,3.35
2022-07-29T11:50:29.134Z,3.72
2022-07-29T11:52:57.952Z,4.50
2022-07-29T11:55:32.516Z,4.00
2022-07-29T11:58:03.825Z,4.28
2022-07-29T12:00:55.453Z,3.85
2022-07-29T12:03:44.983Z,4.15
2022-07-29T12:06:18.358Z,4.43
2022-07-29T12:08:46.096Z,3.65
2022-07-29T12:11:20.765Z,4.45
2022-07-29T12:13:49.370Z,4.68
2022-07-29T12:16:27.971Z,4.25
2022-07-29T12:19:00.458Z,4.35
2022-07-29T12:21:29.800Z,3.58
2022-07-29T12:24:01.876Z,4.60
2022-07-29T12:26:34.201Z,4.20
2022-07-29T12:29:11.481Z,4.13
2022-07-29T12:31:45.566Z,5.00
2022-07-29T12:34:15.734Z,3.45
2022-07-29T12:36:47.597Z,4.18
2022-07-29T12:39:14.101Z,3.80
2022-07-29T12:41:40.563Z,3.42
2022-07-29T12:44:07.075Z,3.50
2022-07-29T12:46:33.690Z,3.00
2022-07-29T12:49:04.164Z,3.58
2022-07-29T12:51:35.979Z,3.80
2022-07-29T12:54:11.934Z,3.63
2022-07-29T12:56:44.012Z,3.05
2022-07-29T12:59:19.403Z,2.95
2022-07-29T13:01:48.932Z,3.50
2022-07-29T13:04:58.763Z,2.85
2022-07-29T13:07:54.580Z,3.40
2022-07-29T13:10:19.272Z,3.67
2022-07-29T13:13:04.161Z,3.33
2022-07-29T13:15:33.224Z,3.55
2022-07-29T13:18:02.204Z,3.25
2022-07-29T13:20:33.154Z,3.30
2022-07-29T13:23:00.969Z,3.22
2022-07-29T13:25:30.176Z,2.80
2022-07-29T13:28:02.288Z,3.20
2022-07-29T13:30:28.830Z,3.05
2022-07-29T13:32:57.794Z,3.67
2022-07-29T13:35:26.792Z,3.78
2022-07-29T13:37:57.885Z,3.38
2022-07-29T13:40:24.402Z,4.00
2022-07-29T13:42:51.214Z,4.25
2022-07-29T13:45:17.684Z,3.75
2022-07-29T13:47:49.352Z,4.57
2022-07-29T13:50:16.198Z,4.05
2022-07-29T13:52:44.862Z,4.28
2022-07-29T13:55:11.401Z,3.80
2022-07-29T13:57:40.329Z,3.30
2022-07-29T14:00:07.599Z,3.60
2022-07-29T14:02:36.637Z,3.85
2022-07-29T14:05:07.995Z,3.70
2022-07-29T14:07:34.989Z,3.60
2022-07-29T14:10:01.682Z,3.22
2022-07-29T14:12:31.146Z,3.35
2022-07-29T14:14:59.852Z,2.97
2022-07-29T14:17:29.556Z,3.65
2022-07-29T14:19:58.451Z,3.03
2022-07-29T14:22:27.358Z,3.42
2022-07-29T14:24:56.188Z,3.08
2022-07-29T14:27:37.607Z,3.25
2022-07-29T14:30:07.944Z,3.50
2022-07-29T14:32:34.568Z,3.70
2022-07-29T14:35:02.930Z,3.22
2022-07-29T14:37:39.036Z,3.20
2022-07-29T14:40:08.133Z,3.03
2022-07-29T14:42:34.756Z,3.70
2022-07-29T14:45:01.238Z,2.92
2022-07-29T14:47:30.654Z,2.85
2022-07-29T14:49:57.074Z,2.97
2022-07-29T14:52:28.624Z,2.67
2022-07-29T14:54:55.060Z,2.00
2022-07-29T14:57:21.514Z,2.85
2022-07-29T14:59:48.018Z,2.70
2022-07-29T15:02:16.946Z,2.92
2022-07-29T15:04:47.008Z,3.20
2022-07-29T15:07:13.479Z,2.90
2022-07-29T15:09:50.001Z,3.55
2022-07-29T15:12:19.012Z,3.50
2022-07-29T15:14:48.607Z,3.47
2022-07-29T15:17:18.580Z,3.60
2022-07-29T15:19:46.927Z,3.20
2022-07-29T15:22:13.388Z,3.30
2022-07-29T15:24:42.719Z,3.60
2022-07-29T15:27:16.064Z,3.53
2022-07-29T15:29:47.055Z,4.70
2022-07-29T15:32:13.605Z,3.60
2022-07-29T15:34:41.889Z,3.85
2022-07-29T15:37:11.779Z,4.50
2022-07-29T15:39:38.285Z,4.10
2022-07-29T15:42:07.387Z,4.10
2022-07-29T15:44:34.673Z,3.97
2022-07-29T15:47:03.788Z,3.65
2022-07-29T15:49:48.433Z,3.40
2022-07-29T15:52:18.188Z,3.60
2022-07-29T15:54:47.173Z,3.55
2022-07-29T15:57:13.682Z,3.70
2022-07-29T15:59:40.464Z,3.22
2022-07-29T16:02:07.186Z,4.20
2022-07-29T16:04:36.542Z,3.95
2022-07-29T16:07:03.819Z,3.47
2022-07-29T16:09:31.651Z,3.50
2022-07-29T16:12:00.381Z,3.95
2022-07-29T16:14:28.163Z,3.70
2022-07-29T16:16:58.013Z,4.05
2022-07-29T16:19:27.630Z,4.00
2022-07-29T16:22:00.385Z,4.40
2022-07-29T16:24:29.701Z,4.28
2022-07-29T16:26:56.893Z,3.97
2022-07-29T16:29:26.508Z,3.65
2022-07-29T16:31:55.619Z,3.72
2022-07-29T16:34:22.066Z,3.47
2022-07-29T16:36:48.535Z,3.22
2022-07-29T16:39:14.985Z,3.50
2022-07-29T16:41:43.914Z,4.00
2022-07-29T16:44:13.339Z,3.63
2022-07-29T16:46:42.953Z,3.90
2022-07-29T16:49:10.030Z,3.80
2022-07-29T16:51:38.990Z,4.47
2022-07-29T16:54:10.657Z,4.22
2022-07-29T16:56:37.342Z,4.65
2022-07-29T16:59:06.275Z,4.20
2022-07-29T17:01:32.728Z,4.03
2022-07-29T17:04:08.004Z,3.53
2022-07-29T17:06:37.814Z,3.30
2022-07-29T17:09:11.339Z,3.50
2022-07-29T17:11:53.654Z,3.50
2022-07-29T17:14:27.065Z,3.40
2022-07-29T17:16:58.936Z,3.42
2022-07-29T17:19:29.915Z,3.28
2022-07-29T17:22:03.540Z,3.35
2022-07-29T17:24:35.715Z,41.25
2022-07-29T17:27:02.197Z,59.38
2022-07-29T17:29:31.333Z,22.27
2022-07-29T17:31:59.402Z,8.02
2022-07-29T17:34:25.860Z,5.10
2022-07-29T17:36:55.318Z,4.15
2022-07-29T17:39:24.744Z,3.40
2022-07-29T17:41:54.305Z,4.25
2022-07-29T17:44:20.754Z,3.65
2022-07-29T17:46:52.455Z,3.47
2022-07-29T17:49:21.642Z,3.38
2022-07-29T17:51:50.037Z,4.10
2022-07-29T17:54:16.555Z,3.58
2022-07-29T17:56:45.332Z,12.13
2022-07-29T17:59:11.836Z,6.63
2022-07-29T18:01:41.371Z,18.33
2022-07-29T18:04:11.335Z,17.75
2022-07-29T18:06:39.177Z,9.00
2022-07-29T18:09:06.012Z,5.55
2022-07-29T18:11:32.548Z,5.15
2022-07-29T18:14:02.573Z,3.88
2022-07-29T18:16:29.370Z,3.40
2022-07-29T18:18:55.937Z,3.13
2022-07-29T18:21:37.465Z,3.13
2022-07-29T18:24:09.370Z,3.80
2022-07-29T18:26:35.813Z,5.68
2022-07-29T18:29:06.846Z,8.18
2022-07-29T18:31:36.921Z,9.85
2022-07-29T18:34:06.127Z,7.13
2022-07-29T18:36:32.570Z,6.90
2022-07-29T18:39:01.480Z,4.95
2022-07-29T18:41:27.918Z,5.15
2022-07-29T18:43:56.619Z,4.80
2022-07-29T18:46:27.198Z,5.00
2022-07-29T18:48:54.706Z,16.48
2022-07-29T18:51:24.488Z,7.85
2022-07-29T18:53:51.039Z,3.88
2022-07-29T18:56:19.772Z,3.50
2022-07-29T18:58:46.393Z,4.18
2022-07-29T19:01:16.467Z,3.85
2022-07-29T19:03:43.218Z,11.50
2022-07-29T19:06:09.727Z,7.82
2022-07-29T19:08:39.912Z,4.18
2022-07-29T19:11:06.373Z,3.08
2022-07-29T19:13:33.493Z,2.85
2022-07-29T19:16:00.737Z,2.25
2022-07-29T19:18:27.237Z,2.67
2022-07-29T19:20:53.849Z,2.55
2022-07-29T19:23:22.825Z,2.45
2022-07-29T19:25:53.374Z,2.78
2022-07-29T19:28:20.931Z,2.22
2022-07-29T19:30:47.440Z,2.13
2022-07-29T19:33:19.627Z,2.03
2022-07-29T19:35:54.335Z,2.00
2022-07-29T19:38:21.599Z,2.17
2022-07-29T19:40:50.424Z,2.50
2022-07-29T19:43:51.112Z,3.00
2022-07-29T19:46:11.232Z,6.95
2022-07-29T19:48:40.698Z,7.53
2022-07-29T19:51:07.164Z,5.00
2022-07-29T19:53:35.730Z,2.80
2022-07-29T19:56:02.191Z,2.78
2022-07-29T19:58:30.247Z,2.08
2022-07-29T20:00:57.144Z,2.20
2022-07-29T20:03:25.866Z,2.00
2022-07-29T20:05:55.537Z,2.00
2022-07-29T20:08:22.062Z,2.13
2022-07-29T20:10:48.495Z,1.75
2022-07-29T20:13:15.039Z,1.65
2022-07-29T20:15:43.923Z,1.90
2022-07-29T20:18:10.473Z,1.50
2022-07-29T20:20:42.665Z,1.65
2022-07-29T20:23:11.676Z,2.13
2022-07-29T20:25:44.296Z,2.47
2022-07-29T20:28:12.933Z,1.90
2022-07-29T20:30:39.442Z,1.80
2022-07-29T20:33:06.663Z,1.80
2022-07-29T20:35:33.308Z,1.60
2022-07-29T20:38:02.279Z,1.67
2022-07-29T20:40:31.253Z,1.45
2022-07-29T20:42:57.747Z,1.98
2022-07-29T20:45:29.128Z,1.63
2022-07-29T20:47:58.403Z,1.80
2022-07-29T20:50:29.851Z,1.58
2022-07-29T20:52:56.332Z,1.58
2022-07-29T20:55:25.864Z,1.98
2022-07-29T20:57:57.316Z,1.92
2022-07-29T21:00:26.109Z,1.80
2022-07-29T21:02:54.080Z,1.77
2022-07-29T21:05:23.274Z,1.80
2022-07-29T21:07:56.524Z,1.80
2022-07-29T21:10:24.558Z,1.83
2022-07-29T21:12:52.332Z,1.73
2022-07-29T21:15:20.722Z,1.75
2022-07-29T21:17:48.140Z,1.95
2022-07-29T21:20:22.686Z,1.70
2022-07-29T21:22:49.198Z,2.40
2022-07-29T21:25:17.923Z,1.92
2022-07-29T21:28:02.659Z,2.10
2022-07-29T21:30:31.394Z,2.15
2022-07-29T21:33:00.830Z,1.73
2022-07-29T21:36:02.064Z,1.90
2022-07-29T21:38:16.831Z,1.85
2022-07-29T21:40:44.369Z,2.10
2022-07-29T21:43:13.899Z,2.00
2022-07-29T21:45:42.513Z,2.17
2022-07-29T21:48:10.939Z,1.70
2022-07-29T21:50:40.507Z,2.00
2022-07-29T21:53:06.950Z,1.73
2022-07-29T21:55:33.545Z,2.00
2022-07-29T21:58:00.072Z,1.92
2022-07-29T22:00:26.782Z,2.00
2022-07-29T22:02:53.497Z,1.90
2022-07-29T22:05:22.282Z,2.05
2022-07-29T22:07:56.240Z,1.40
2022-07-29T22:10:27.526Z,2.08
2022-07-29T22:12:55.654Z,2.10
2022-07-29T22:15:22.299Z,1.98
2022-07-29T22:17:51.249Z,2.05
2022-07-29T22:20:20.001Z,2.10
2022-07-29T22:22:46.894Z,1.90
2022-07-29T22:25:13.323Z,1.85
2022-07-29T22:27:42.268Z,1.92
2022-07-29T22:30:12.151Z,2.05
2022-07-29T22:32:38.745Z,1.80
2022-07-29T22:35:05.543Z,2.20
2022-07-29T22:37:34.119Z,2.05
2022-07-29T22:40:02.846Z,2.22
2022-07-29T22:42:29.337Z,2.20
2022-07-29T22:44:58.564Z,2.42
2022-07-29T22:47:38.742Z,2.17
2022-07-29T22:50:11.525Z,2.00
2022-07-29T22:52:37.930Z,1.90
2022-07-29T22:55:05.092Z,2.38
2022-07-29T22:57:31.538Z,2.63
2022-07-29T22:59:58.230Z,2.50
2022-07-29T23:02:26.670Z,2.42
2022-07-29T23:04:53.088Z,1.98
2022-07-29T23:07:19.507Z,2.30
2022-07-29T23:09:45.976Z,2.83
2022-07-29T23:12:14.699Z,2.25
2022-07-29T23:14:43.775Z,2.40
2022-07-29T23:17:10.217Z,2.00
2022-07-29T23:19:36.647Z,2.60
2022-07-29T23:22:03.071Z,2.50
2022-07-29T23:24:34.025Z,2.75
2022-07-29T23:27:02.857Z,2.40
2022-07-29T23:29:36.669Z,2.60
2022-07-29T23:32:03.492Z,2.40
2022-07-29T23:34:29.908Z,2.08
2022-07-29T23:36:59.076Z,2.10
2022-07-29T23:39:26.051Z,2.38
2022-07-29T23:41:52.657Z,2.15
2022-07-29T23:44:21.495Z,1.75
2022-07-29T23:46:50.196Z,2.10
2022-07-29T23:49:19.764Z,1.85
2022-07-29T23:51:48.706Z,1.70
2022-07-29T23:54:17.244Z,2.20
2022-07-29T23:56:43.674Z,2.30
2022-07-29T23:59:12.942Z,2.40
